Wetterdaten: Woche 24.07.23 - 30.07.23 (KW30)
Datum Zeit Temp. Aussen Temp. o. S. Temp +5cm Feuchte Auss Luftdruck Regen Sonnenschein Regendauer Solar Windben Empfang
24.07.2023 00:00 18,5 C 17,5 C 13,8 C 97 % 1007,0 hPa 0,8 l/m 0,00 h 0,67 h 0 W/m 14,9 km/h (3 Bft) 95,87 %
24.07.2023 01:00 18,2 C 17,1 C 13,6 C 97 % 1006,4 hPa 0,0 l/m 0,00 h 0,00 h 0 W/m 6,6 km/h (2 Bft) 98,93 %
24.07.2023 02:00 17,8 C 16,7 C 13,2 C 97 % 1005,8 hPa 0,0 l/m 0,00 h 0,00 h 0 W/m 1,0 km/h (0 Bft) 98,06 %
24.07.2023 03:00 17,3 C 16,2 C 12,8 C 97 % 1004,9 hPa 0,0 l/m 0,00 h 0,00 h 0 W/m 3,0 km/h (1 Bft) 95,69 %
24.07.2023 04:00 17,0 C 16,1 C 12,8 C 98 % 1004,4 hPa 0,8 l/m 0,00 h 0,37 h 0 W/m 3,0 km/h (1 Bft) 99,05 %
24.07.2023 05:00 17,3 C 16,7 C 13,3 C 98 % 1004,1 hPa 0,4 l/m 0,00 h 0,27 h 0 W/m 2,3 km/h (1 Bft) 96,73 %
24.07.2023 06:00 17,5 C 16,7 C 13,3 C 98 % 1003,7 hPa 2,2 l/m 0,00 h 0,73 h 10 W/m 15,2 km/h (3 Bft) 96,01 %
24.07.2023 07:00 17,6 C 17,0 C 13,3 C 98 % 1004,1 hPa 0,0 l/m 0,00 h 0,17 h 46 W/m 17,2 km/h (3 Bft) 98,57 %
24.07.2023 08:00 18,2 C 18,3 C 13,8 C 97 % 1004,1 hPa 0,0 l/m 0,37 h 0,00 h 169 W/m 18,3 km/h (3 Bft) 97,10 %
24.07.2023 09:00 18,7 C 18,1 C 13,6 C 94 % 1004,3 hPa 0,2 l/m 0,00 h 0,20 h 90 W/m 14,8 km/h (3 Bft) 97,00 %
24.07.2023 10:00 19,1 C 19,5 C 14,5 C 96 % 1004,0 hPa 0,2 l/m 0,53 h 0,07 h 368 W/m 10,3 km/h (2 Bft) 99,36 %
24.07.2023 11:00 19,7 C 20,4 C 14,7 C 92 % 1003,7 hPa 0,0 l/m 0,30 h 0,17 h 323 W/m 8,6 km/h (2 Bft) 95,18 %
24.07.2023 12:00 19,9 C 19,1 C 14,5 C 91 % 1003,1 hPa 1,4 l/m 0,00 h 0,50 h 143 W/m 5,9 km/h (2 Bft) 98,06 %
24.07.2023 13:00 18,8 C 19,1 C 14,1 C 95 % 1003,1 hPa 4,8 l/m 0,20 h 0,57 h 237 W/m 8,1 km/h (2 Bft) 97,72 %
24.07.2023 14:00 19,4 C 21,4 C 14,8 C 96 % 1003,1 hPa 0,0 l/m 0,23 h 0,00 h 392 W/m 11,5 km/h (2 Bft) 94,34 %
24.07.2023 15:00 21,1 C 23,1 C 14,7 C 86 % 1002,7 hPa 0,0 l/m 0,50 h 0,00 h 466 W/m 11,1 km/h (2 Bft) 97,23 %
24.07.2023 16:00 21,0 C 21,7 C 15,9 C 83 % 1002,4 hPa 0,0 l/m 0,40 h 0,17 h 346 W/m 12,3 km/h (3 Bft) 96,93 %
24.07.2023 17:00 21,6 C 22,2 C 17,3 C 76 % 1002,9 hPa 0,0 l/m 0,40 h 0,00 h 280 W/m 16,1 km/h (3 Bft) 96,44 %
24.07.2023 18:00 18,2 C 17,0 C 12,8 C 85 % 1003,7 hPa 0,8 l/m 0,00 h 0,77 h 48 W/m 14,7 km/h (3 Bft) 96,35 %
24.07.2023 19:00 16,5 C 15,9 C 11,5 C 93 % 1004,3 hPa 0,2 l/m 0,00 h 0,17 h 65 W/m 7,5 km/h (2 Bft) 97,36 %
24.07.2023 20:00 16,8 C 16,3 C 11,9 C 93 % 1004,6 hPa 0,0 l/m 0,00 h 0,00 h 34 W/m 7,4 km/h (2 Bft) 97,58 %
24.07.2023 21:00 16,9 C 16,2 C 11,8 C 93 % 1005,3 hPa 0,0 l/m 0,00 h 0,00 h 9 W/m 7,1 km/h (2 Bft) 97,52 %
24.07.2023 22:00 16,7 C 16,0 C 12,0 C 94 % 1006,1 hPa 0,0 l/m 0,00 h 0,00 h 0 W/m 7,4 km/h (2 Bft) 98,37 %
24.07.2023 23:00 16,1 C 15,6 C 11,8 C 93 % 1006,5 hPa 0,0 l/m 0,00 h 0,00 h 0 W/m 5,7 km/h (1 Bft) 96,03 %
25.07.2023 00:00 15,8 C 15,0 C 11,7 C 93 % 1006,7 hPa 0,0 l/m 0,00 h 0,00 h 0 W/m 4,4 km/h (1 Bft) 95,05 %
25.07.2023 01:00 15,3 C 14,5 C 11,1 C 92 % 1006,6 hPa 0,0 l/m 0,00 h 0,00 h 0 W/m 5,2 km/h (1 Bft) 98,98 %
25.07.2023 02:00 15,2 C 14,4 C 11,1 C 93 % 1006,9 hPa 0,0 l/m 0,00 h 0,00 h 0 W/m 1,8 km/h (1 Bft) 95,03 %
25.07.2023 03:00 15,0 C 14,3 C 11,0 C 93 % 1006,7 hPa 0,0 l/m 0,00 h 0,00 h 0 W/m 1,4 km/h (1 Bft) 99,86 %
25.07.2023 04:00 14,4 C 13,0 C 10,2 C 93 % 1006,4 hPa 0,0 l/m 0,00 h 0,00 h 0 W/m 0,0 km/h (0 Bft) 97,98 %
25.07.2023 05:00 14,0 C 13,0 C 10,0 C 95 % 1006,4 hPa 0,0 l/m 0,00 h 0,00 h 3 W/m 1,2 km/h (1 Bft) 96,37 %
25.07.2023 06:00 13,6 C 12,8 C 9,7 C 95 % 1006,2 hPa 0,0 l/m 0,00 h 0,00 h 27 W/m 2,4 km/h (1 Bft) 98,82 %
25.07.2023 07:00 13,8 C 14,1 C 10,6 C 95 % 1006,4 hPa 0,0 l/m 0,17 h 0,00 h 93 W/m 4,7 km/h (1 Bft) 97,08 %
25.07.2023 08:00 14,9 C 17,8 C 11,7 C 91 % 1006,6 hPa 0,0 l/m 0,63 h 0,00 h 291 W/m 7,3 km/h (2 Bft) 97,43 %
25.07.2023 09:00 16,6 C 17,9 C 13,3 C 79 % 1006,8 hPa 0,0 l/m 0,30 h 0,00 h 257 W/m 7,9 km/h (2 Bft) 98,30 %
25.07.2023 10:00 16,8 C 17,3 C 13,4 C 77 % 1007,1 hPa 0,0 l/m 0,17 h 0,00 h 277 W/m 8,9 km/h (2 Bft) 98,08 %
25.07.2023 11:00 17,8 C 19,7 C 14,8 C 73 % 1007,3 hPa 0,0 l/m 0,77 h 0,00 h 480 W/m 10,7 km/h (2 Bft) 94,66 %
25.07.2023 12:00 18,4 C 19,4 C 15,0 C 71 % 1007,4 hPa 0,0 l/m 0,33 h 0,00 h 361 W/m 14,8 km/h (3 Bft) 98,00 %
25.07.2023 13:00 17,6 C 17,3 C 13,6 C 74 % 1007,6 hPa 0,0 l/m 0,00 h 0,00 h 169 W/m 14,9 km/h (3 Bft) 97,31 %
25.07.2023 14:00 17,4 C 17,7 C 13,4 C 77 % 1007,9 hPa 0,6 l/m 0,17 h 0,27 h 230 W/m 10,2 km/h (2 Bft) 98,28 %
25.07.2023 15:00 16,8 C 18,4 C 12,9 C 85 % 1008,1 hPa 0,0 l/m 0,37 h 0,00 h 390 W/m 2,4 km/h (1 Bft) 97,58 %
25.07.2023 16:00 19,1 C 20,4 C 15,3 C 71 % 1008,0 hPa 0,0 l/m 0,47 h 0,00 h 349 W/m 9,2 km/h (2 Bft) 97,72 %
25.07.2023 17:00 20,5 C 22,5 C 16,5 C 58 % 1008,1 hPa 0,0 l/m 0,65 h 0,00 h 413 W/m 17,4 km/h (3 Bft) 98,49 %
25.07.2023 18:00 20,8 C 23,5 C 17,0 C 58 % 1008,4 hPa 0,0 l/m 0,80 h 0,00 h 348 W/m 22,0 km/h (4 Bft) 95,37 %
25.07.2023 19:00 19,8 C 20,5 C 15,2 C 61 % 1009,1 hPa 0,0 l/m 0,73 h 0,00 h 187 W/m 17,3 km/h (3 Bft) 98,81 %
25.07.2023 20:00 18,6 C 17,7 C 13,9 C 64 % 1009,6 hPa 0,0 l/m 0,00 h 0,00 h 35 W/m 13,0 km/h (3 Bft) 98,29 %
25.07.2023 21:00 17,2 C 15,7 C 12,1 C 68 % 1010,3 hPa 0,0 l/m 0,00 h 0,00 h 10 W/m 4,3 km/h (1 Bft) 95,42 %
25.07.2023 22:00 15,4 C 13,9 C 10,5 C 75 % 1011,0 hPa 0,0 l/m 0,00 h 0,00 h 0 W/m 0,5 km/h (0 Bft) 96,79 %
25.07.2023 23:00 14,5 C 13,3 C 10,0 C 80 % 1011,6 hPa 0,0 l/m 0,00 h 0,00 h 0 W/m 0,0 km/h (0 Bft) 97,29 %
26.07.2023 00:00 13,6 C 12,2 C 9,3 C 84 % 1011,9 hPa 0,0 l/m 0,00 h 0,00 h 0 W/m 0,0 km/h (0 Bft) 98,36 %
26.07.2023 01:00 13,5 C 13,1 C 9,8 C 86 % 1011,9 hPa 0,0 l/m 0,00 h 0,00 h 0 W/m 0,0 km/h (0 Bft) 95,62 %
26.07.2023 02:00 13,9 C 13,3 C 10,0 C 85 % 1012,0 hPa 0,0 l/m 0,00 h 0,00 h 0 W/m 0,0 km/h (0 Bft) 98,30 %
26.07.2023 03:00 14,0 C 13,3 C 10,0 C 85 % 1012,0 hPa 0,0 l/m 0,00 h 0,00 h 0 W/m 0,6 km/h (0 Bft) 99,15 %
26.07.2023 04:00 14,0 C 13,3 C 10,0 C 85 % 1011,9 hPa 0,0 l/m 0,00 h 0,00 h 0 W/m 1,3 km/h (1 Bft) 94,20 %
26.07.2023 05:00 13,6 C 12,4 C 9,0 C 88 % 1012,2 hPa 1,4 l/m 0,00 h 0,37 h 3 W/m 8,6 km/h (2 Bft) 99,28 %
26.07.2023 06:00 12,9 C 12,0 C 8,4 C 94 % 1012,3 hPa 0,0 l/m 0,00 h 0,00 h 27 W/m 2,7 km/h (1 Bft) 97,55 %
26.07.2023 07:00 13,0 C 12,6 C 8,7 C 95 % 1012,5 hPa 0,0 l/m 0,00 h 0,00 h 54 W/m 2,5 km/h (1 Bft) 96,38 %
26.07.2023 08:00 14,0 C 16,0 C 9,3 C 94 % 1012,7 hPa 0,0 l/m 0,77 h 0,00 h 249 W/m 11,0 km/h (2 Bft) 97,34 %
26.07.2023 09:00 16,4 C 20,5 C 11,3 C 87 % 1013,0 hPa 0,0 l/m 1,00 h 0,00 h 475 W/m 11,1 km/h (2 Bft) 98,52 %
26.07.2023 10:00 17,9 C 18,7 C 14,0 C 83 % 1013,2 hPa 0,0 l/m 0,53 h 0,00 h 330 W/m 11,3 km/h (2 Bft) 94,93 %
26.07.2023 11:00 16,1 C 14,3 C 10,8 C 88 % 1013,1 hPa 4,4 l/m 0,00 h 0,60 h 56 W/m 4,3 km/h (1 Bft) 98,21 %
26.07.2023 12:00 16,9 C 19,8 C 12,7 C 89 % 1012,9 hPa 0,0 l/m 0,52 h 0,00 h 518 W/m 4,5 km/h (1 Bft) 97,70 %
26.07.2023 13:00 17,4 C 17,4 C 11,8 C 87 % 1012,8 hPa 0,2 l/m 0,00 h 0,20 h 152 W/m 4,6 km/h (1 Bft) 97,53 %
26.07.2023 14:00 19,0 C 21,5 C 14,4 C 76 % 1012,8 hPa 0,0 l/m 0,53 h 0,00 h 522 W/m 11,8 km/h (2 Bft) 97,20 %
26.07.2023 15:00 20,1 C 22,7 C 16,0 C 67 % 1012,9 hPa 0,0 l/m 0,63 h 0,00 h 642 W/m 16,4 km/h (3 Bft) 98,15 %
26.07.2023 16:00 21,2 C 23,1 C 16,7 C 64 % 1012,8 hPa 0,0 l/m 0,53 h 0,03 h 456 W/m 14,3 km/h (3 Bft) 97,61 %
26.07.2023 17:00 22,3 C 25,7 C 18,0 C 56 % 1012,8 hPa 0,0 l/m 1,00 h 0,00 h 597 W/m 17,3 km/h (3 Bft) 97,23 %
26.07.2023 18:00 22,3 C 25,7 C 18,2 C 56 % 1012,7 hPa 0,0 l/m 0,90 h 0,00 h 408 W/m 14,5 km/h (3 Bft) 96,40 %
26.07.2023 19:00 21,8 C 22,5 C 17,0 C 57 % 1012,7 hPa 0,0 l/m 0,60 h 0,00 h 173 W/m 9,2 km/h (2 Bft) 99,79 %
26.07.2023 20:00 20,4 C 18,9 C 15,1 C 64 % 1012,8 hPa 0,0 l/m 0,00 h 0,00 h 32 W/m 1,9 km/h (1 Bft) 95,48 %
26.07.2023 21:00 19,1 C 17,7 C 13,3 C 71 % 1012,9 hPa 0,0 l/m 0,00 h 0,00 h 7 W/m 0,1 km/h (0 Bft) 98,23 %
26.07.2023 22:00 18,6 C 17,5 C 13,3 C 73 % 1012,8 hPa 0,0 l/m 0,00 h 0,00 h 0 W/m 0,9 km/h (0 Bft) 98,07 %
26.07.2023 23:00 18,4 C 17,4 C 13,9 C 73 % 1012,4 hPa 0,0 l/m 0,00 h 0,00 h 0 W/m 1,1 km/h (0 Bft) 96,44 %
27.07.2023 00:00 18,1 C 17,1 C 13,7 C 74 % 1011,9 hPa 0,0 l/m 0,00 h 0,00 h 0 W/m 2,2 km/h (1 Bft) 98,07 %
27.07.2023 01:00 17,6 C 16,5 C 13,1 C 76 % 1011,2 hPa 0,0 l/m 0,00 h 0,00 h 0 W/m 3,5 km/h (1 Bft) 97,94 %
27.07.2023 02:00 17,1 C 16,1 C 12,8 C 78 % 1010,6 hPa 0,0 l/m 0,00 h 0,00 h 0 W/m 3,2 km/h (1 Bft) 97,02 %
27.07.2023 03:00 17,0 C 16,1 C 12,6 C 79 % 1010,1 hPa 0,0 l/m 0,00 h 0,17 h 0 W/m 6,0 km/h (2 Bft) 98,08 %
27.07.2023 04:00 16,6 C 15,0 C 10,8 C 85 % 1009,8 hPa 1,2 l/m 0,00 h 0,97 h 0 W/m 3,5 km/h (1 Bft) 97,42 %
27.07.2023 05:00 15,6 C 13,9 C 10,5 C 90 % 1009,1 hPa 1,2 l/m 0,00 h 1,00 h 0 W/m 4,2 km/h (1 Bft) 96,91 %
27.07.2023 06:00 15,0 C 13,8 C 10,4 C 94 % 1008,1 hPa 3,0 l/m 0,00 h 1,00 h 7 W/m 7,0 km/h (2 Bft) 97,44 %
27.07.2023 07:00 14,5 C 13,3 C 10,0 C 96 % 1007,1 hPa 2,6 l/m 0,00 h 1,00 h 12 W/m 13,0 km/h (3 Bft) 97,85 %
27.07.2023 08:00 14,6 C 13,8 C 10,5 C 98 % 1006,6 hPa 1,2 l/m 0,00 h 0,40 h 42 W/m 10,6 km/h (2 Bft) 98,65 %
27.07.2023 09:00 15,4 C 14,7 C 11,4 C 98 % 1006,1 hPa 1,6 l/m 0,00 h 0,90 h 80 W/m 8,5 km/h (2 Bft) 95,63 %
27.07.2023 10:00 16,4 C 15,6 C 12,2 C 99 % 1005,7 hPa 2,4 l/m 0,00 h 0,93 h 51 W/m 14,3 km/h (3 Bft) 98,65 %
27.07.2023 11:00 16,9 C 16,2 C 12,7 C 99 % 1005,6 hPa 0,2 l/m 0,00 h 0,43 h 112 W/m 16,8 km/h (3 Bft) 96,44 %
27.07.2023 12:00 17,6 C 17,4 C 13,4 C 99 % 1005,5 hPa 0,0 l/m 0,00 h 0,00 h 211 W/m 17,4 km/h (3 Bft) 97,45 %
27.07.2023 13:00 18,3 C 18,3 C 13,9 C 99 % 1005,3 hPa 0,2 l/m 0,00 h 0,40 h 251 W/m 19,0 km/h (3 Bft) 97,58 %
27.07.2023 14:00 18,6 C 18,2 C 14,2 C 98 % 1005,3 hPa 0,4 l/m 0,00 h 0,43 h 174 W/m 16,3 km/h (3 Bft) 96,69 %
27.07.2023 15:00 18,9 C 19,1 C 14,4 C 97 % 1005,3 hPa 0,0 l/m 0,00 h 0,00 h 217 W/m 20,2 km/h (4 Bft) 96,86 %
27.07.2023 16:00 19,1 C 18,7 C 14,4 C 96 % 1005,4 hPa 0,6 l/m 0,00 h 0,70 h 153 W/m 16,3 km/h (3 Bft) 97,65 %
27.07.2023 17:00 18,5 C 17,8 C 14,0 C 97 % 1005,6 hPa 0,2 l/m 0,00 h 0,30 h 88 W/m 15,5 km/h (3 Bft) 97,27 %
27.07.2023 18:00 18,2 C 17,8 C 13,9 C 98 % 1005,7 hPa 0,0 l/m 0,00 h 0,27 h 78 W/m 16,1 km/h (3 Bft) 97,46 %
27.07.2023 19:00 18,2 C 17,3 C 13,9 C 98 % 1005,7 hPa 0,2 l/m 0,00 h 0,20 h 38 W/m 13,3 km/h (3 Bft) 97,14 %
27.07.2023 20:00 17,9 C 17,2 C 13,9 C 98 % 1005,8 hPa 0,4 l/m 0,00 h 0,13 h 18 W/m 16,0 km/h (3 Bft) 98,28 %
27.07.2023 21:00 17,7 C 16,9 C 13,4 C 98 % 1005,9 hPa 0,0 l/m 0,00 h 0,00 h 6 W/m 13,4 km/h (3 Bft) 95,85 %
27.07.2023 22:00 17,6 C 16,7 C 13,3 C 98 % 1006,2 hPa 0,0 l/m 0,00 h 0,03 h 0 W/m 13,7 km/h (3 Bft) 96,73 %
27.07.2023 23:00 17,4 C 16,7 C 13,3 C 98 % 1006,0 hPa 0,2 l/m 0,00 h 0,20 h 0 W/m 12,7 km/h (3 Bft) 98,72 %
28.07.2023 00:00 17,2 C 16,7 C 13,3 C 99 % 1005,9 hPa 0,0 l/m 0,00 h 0,00 h 0 W/m 12,8 km/h (3 Bft) 96,13 %
28.07.2023 01:00 17,2 C 16,7 C 13,3 C 99 % 1005,9 hPa 0,0 l/m 0,00 h 0,00 h 0 W/m 11,9 km/h (2 Bft) 97,72 %
28.07.2023 02:00 17,3 C 16,7 C 13,3 C 98 % 1005,9 hPa 0,0 l/m 0,00 h 0,00 h 0 W/m 11,6 km/h (2 Bft) 97,50 %
28.07.2023 03:00 17,3 C 16,7 C 13,3 C 99 % 1005,9 hPa 0,0 l/m 0,00 h 0,00 h 0 W/m 6,9 km/h (2 Bft) 96,30 %
28.07.2023 04:00 17,3 C 16,6 C 13,3 C 99 % 1005,9 hPa 0,2 l/m 0,00 h 0,07 h 0 W/m 6,3 km/h (2 Bft) 95,97 %
28.07.2023 05:00 17,4 C 16,7 C 13,7 C 99 % 1006,2 hPa 0,2 l/m 0,00 h 0,17 h 0 W/m 4,5 km/h (1 Bft) 99,03 %
28.07.2023 06:00 17,5 C 16,7 C 13,9 C 100 % 1006,4 hPa 0,2 l/m 0,00 h 0,00 h 21 W/m 5,4 km/h (1 Bft) 96,65 %
28.07.2023 07:00 17,7 C 17,2 C 14,1 C 100 % 1006,7 hPa 0,0 l/m 0,00 h 0,00 h 47 W/m 6,2 km/h (2 Bft) 97,14 %
28.07.2023 08:00 18,0 C 17,6 C 14,4 C 100 % 1007,2 hPa 0,0 l/m 0,00 h 0,07 h 68 W/m 6,7 km/h (2 Bft) 97,35 %
28.07.2023 09:00 18,3 C 18,0 C 14,8 C 100 % 1007,6 hPa 0,2 l/m 0,00 h 0,07 h 106 W/m 6,1 km/h (2 Bft) 96,83 %
28.07.2023 10:00 18,5 C 18,5 C 15,0 C 100 % 1008,0 hPa 0,0 l/m 0,00 h 0,00 h 126 W/m 9,1 km/h (2 Bft) 97,13 %
28.07.2023 11:00 19,2 C 19,9 C 15,6 C 100 % 1008,3 hPa 0,0 l/m 0,07 h 0,00 h 219 W/m 8,8 km/h (2 Bft) 99,15 %
28.07.2023 12:00 20,9 C 21,8 C 17,3 C 94 % 1008,2 hPa 0,0 l/m 0,13 h 0,10 h 273 W/m 7,6 km/h (2 Bft) 94,99 %
28.07.2023 13:00 21,6 C 23,8 C 17,4 C 91 % 1008,3 hPa 0,2 l/m 0,47 h 0,23 h 460 W/m 10,9 km/h (2 Bft) 98,92 %
28.07.2023 14:00 23,2 C 24,1 C 19,2 C 84 % 1008,2 hPa 0,0 l/m 0,27 h 0,00 h 315 W/m 14,3 km/h (3 Bft) 98,40 %
28.07.2023 15:00 22,8 C 22,5 C 18,1 C 85 % 1008,5 hPa 1,0 l/m 0,10 h 0,20 h 248 W/m 15,2 km/h (3 Bft) 95,63 %
28.07.2023 16:00 22,5 C 24,1 C 17,0 C 92 % 1008,4 hPa 0,2 l/m 0,75 h 0,00 h 472 W/m 9,9 km/h (2 Bft) 97,06 %
28.07.2023 17:00 22,6 C 22,3 C 16,6 C 86 % 1008,5 hPa 0,0 l/m 0,10 h 0,00 h 201 W/m 13,5 km/h (3 Bft) 98,79 %
28.07.2023 18:00 22,9 C 26,5 C 18,6 C 85 % 1008,3 hPa 0,0 l/m 0,73 h 0,00 h 340 W/m 7,4 km/h (2 Bft) 95,97 %
28.07.2023 19:00 23,8 C 23,7 C 18,7 C 80 % 1008,1 hPa 0,0 l/m 0,40 h 0,00 h 145 W/m 8,8 km/h (2 Bft) 98,66 %
28.07.2023 20:00 22,8 C 21,6 C 17,4 C 82 % 1008,3 hPa 0,0 l/m 0,00 h 0,00 h 31 W/m 4,5 km/h (1 Bft) 96,37 %
28.07.2023 21:00 21,9 C 20,3 C 16,7 C 86 % 1008,3 hPa 0,0 l/m 0,00 h 0,00 h 8 W/m 2,1 km/h (1 Bft) 97,20 %
28.07.2023 22:00 21,2 C 19,8 C 16,5 C 90 % 1008,5 hPa 0,0 l/m 0,00 h 0,10 h 0 W/m 7,4 km/h (2 Bft) 97,86 %
28.07.2023 23:00 20,2 C 18,8 C 15,1 C 94 % 1008,7 hPa 0,6 l/m 0,00 h 0,20 h 0 W/m 5,4 km/h (1 Bft) 97,26 %
29.07.2023 00:00 19,6 C 18,2 C 14,7 C 96 % 1008,5 hPa 0,0 l/m 0,00 h 0,00 h 0 W/m 2,7 km/h (1 Bft) 97,36 %
29.07.2023 01:00 19,0 C 17,8 C 14,4 C 97 % 1008,1 hPa 0,0 l/m 0,00 h 0,00 h 0 W/m 1,9 km/h (1 Bft) 98,60 %
29.07.2023 02:00 18,7 C 17,8 C 14,4 C 97 % 1007,8 hPa 0,0 l/m 0,00 h 0,00 h 0 W/m 2,1 km/h (1 Bft) 96,94 %
29.07.2023 03:00 18,6 C 17,8 C 14,4 C 98 % 1007,5 hPa 0,4 l/m 0,00 h 0,27 h 0 W/m 1,5 km/h (1 Bft) 96,94 %
29.07.2023 04:00 18,5 C 17,4 C 14,4 C 98 % 1007,3 hPa 0,0 l/m 0,00 h 0,13 h 0 W/m 3,6 km/h (1 Bft) 98,57 %
29.07.2023 05:00 18,6 C 17,7 C 14,3 C 99 % 1007,2 hPa 0,2 l/m 0,00 h 0,13 h 0 W/m 4,1 km/h (1 Bft) 97,16 %
29.07.2023 06:00 18,0 C 17,2 C 13,9 C 99 % 1007,5 hPa 0,0 l/m 0,00 h 0,00 h 14 W/m 3,1 km/h (1 Bft) 98,01 %
29.07.2023 07:00 17,8 C 17,2 C 13,9 C 98 % 1007,8 hPa 0,0 l/m 0,00 h 0,00 h 51 W/m 1,1 km/h (1 Bft) 97,27 %
29.07.2023 08:00 17,7 C 18,8 C 13,5 C 97 % 1008,3 hPa 0,0 l/m 0,27 h 0,00 h 162 W/m 5,6 km/h (1 Bft) 97,58 %
29.07.2023 09:00 19,5 C 22,4 C 15,8 C 89 % 1008,4 hPa 0,0 l/m 0,63 h 0,00 h 342 W/m 7,1 km/h (2 Bft) 96,52 %
29.07.2023 10:00 20,9 C 22,5 C 16,9 C 82 % 1008,5 hPa 0,0 l/m 0,73 h 0,00 h 502 W/m 12,8 km/h (3 Bft) 98,36 %
29.07.2023 11:00 21,1 C 22,0 C 17,5 C 81 % 1008,6 hPa 0,0 l/m 0,47 h 0,00 h 372 W/m 12,9 km/h (3 Bft) 97,65 %
29.07.2023 12:00 22,3 C 23,2 C 19,3 C 76 % 1008,5 hPa 0,0 l/m 0,17 h 0,00 h 310 W/m 15,7 km/h (3 Bft) 98,20 %
29.07.2023 13:00 22,6 C 23,5 C 18,9 C 74 % 1008,5 hPa 0,0 l/m 0,47 h 0,00 h 363 W/m 14,8 km/h (3 Bft) 95,90 %
29.07.2023 14:00 24,0 C 27,1 C 19,9 C 71 % 1008,1 hPa 0,0 l/m 0,60 h 0,00 h 568 W/m 18,6 km/h (3 Bft) 99,64 %
29.07.2023 15:00 22,6 C 21,8 C 16,8 C 77 % 1008,4 hPa 0,2 l/m 0,03 h 0,53 h 155 W/m 18,5 km/h (3 Bft) 96,22 %
29.07.2023 16:00 21,4 C 21,1 C 16,2 C 84 % 1008,7 hPa 0,2 l/m 0,07 h 0,40 h 202 W/m 15,0 km/h (3 Bft) 97,44 %
29.07.2023 17:00 22,4 C 26,6 C 18,2 C 82 % 1008,5 hPa 0,0 l/m 1,00 h 0,03 h 575 W/m 12,8 km/h (3 Bft) 98,15 %
29.07.2023 18:00 23,4 C 23,8 C 18,9 C 76 % 1008,2 hPa 0,0 l/m 0,28 h 0,00 h 180 W/m 9,8 km/h (2 Bft) 97,63 %
29.07.2023 19:00 22,7 C 22,1 C 18,2 C 79 % 1008,1 hPa 0,0 l/m 0,00 h 0,00 h 83 W/m 10,5 km/h (2 Bft) 96,26 %
29.07.2023 20:00 21,4 C 19,5 C 15,3 C 89 % 1008,5 hPa 3,8 l/m 0,60 h 0,30 h 48 W/m 7,7 km/h (2 Bft) 98,56 %
29.07.2023 21:00 20,0 C 18,7 C 14,6 C 93 % 1008,9 hPa 0,0 l/m 0,07 h 0,00 h 11 W/m 2,6 km/h (1 Bft) 96,68 %
29.07.2023 22:00 19,3 C 18,0 C 14,2 C 95 % 1009,0 hPa 0,0 l/m 0,00 h 0,00 h 0 W/m 1,2 km/h (1 Bft) 97,88 %
29.07.2023 23:00 18,6 C 17,6 C 13,5 C 96 % 1009,2 hPa 0,0 l/m 0,00 h 0,00 h 0 W/m 3,4 km/h (1 Bft) 97,67 %
30.07.2023 00:00 17,5 C 16,6 C 11,9 C 91 % 1009,8 hPa 0,0 l/m 0,00 h 0,00 h 0 W/m 4,5 km/h (1 Bft) 94,79 %
30.07.2023 01:00 16,8 C 15,5 C 11,3 C 91 % 1010,3 hPa 0,0 l/m 0,00 h 0,00 h 0 W/m 1,9 km/h (1 Bft) 98,18 %
30.07.2023 02:00 15,9 C 14,8 C 11,2 C 93 % 1010,2 hPa 0,0 l/m 0,00 h 0,00 h 0 W/m 2,6 km/h (1 Bft) 97,95 %
30.07.2023 03:00 15,4 C 14,4 C 11,1 C 93 % 1010,5 hPa 0,0 l/m 0,00 h 0,00 h 0 W/m 5,8 km/h (2 Bft) 96,33 %
30.07.2023 04:00 14,9 C 14,0 C 10,8 C 93 % 1010,7 hPa 0,0 l/m 0,00 h 0,00 h 0 W/m 3,7 km/h (1 Bft) 98,12 %
30.07.2023 05:00 14,5 C 13,9 C 10,7 C 94 % 1010,9 hPa 0,0 l/m 0,00 h 0,00 h 4 W/m 4,1 km/h (1 Bft) 98,04 %
30.07.2023 06:00 15,0 C 14,6 C 11,5 C 94 % 1011,1 hPa 0,0 l/m 0,00 h 0,00 h 20 W/m 6,1 km/h (2 Bft) 96,92 %
30.07.2023 07:00 15,5 C 15,1 C 12,1 C 92 % 1011,3 hPa 0,0 l/m 0,00 h 0,00 h 61 W/m 13,2 km/h (3 Bft) 96,55 %
30.07.2023 08:00 15,9 C 15,8 C 12,4 C 90 % 1011,5 hPa 0,0 l/m 0,00 h 0,00 h 133 W/m 14,3 km/h (3 Bft) 97,09 %
30.07.2023 09:00 16,7 C 16,8 C 13,2 C 89 % 1011,9 hPa 0,0 l/m 0,13 h 0,00 h 212 W/m 15,7 km/h (3 Bft) 97,29 %
30.07.2023 10:00 17,3 C 17,4 C 13,8 C 87 % 1012,1 hPa 0,0 l/m 0,13 h 0,00 h 248 W/m 17,5 km/h (3 Bft) 98,76 %
30.07.2023 11:00 19,0 C 20,7 C 15,8 C 81 % 1012,4 hPa 0,0 l/m 0,87 h 0,00 h 637 W/m 16,5 km/h (3 Bft) 97,29 %
30.07.2023 12:00 20,7 C 22,0 C 18,3 C 72 % 1012,3 hPa 0,0 l/m 0,47 h 0,03 h 467 W/m 19,4 km/h (3 Bft) 96,44 %
30.07.2023 13:00 21,2 C 22,1 C 17,3 C 71 % 1012,7 hPa 0,0 l/m 0,53 h 0,00 h 518 W/m 22,1 km/h (4 Bft) 99,07 %
30.07.2023 14:00 20,7 C 22,2 C 16,7 C 70 % 1013,1 hPa 0,0 l/m 0,43 h 0,00 h 487 W/m 22,0 km/h (4 Bft) 97,06 %
30.07.2023 15:00 21,8 C 24,7 C 17,3 C 67 % 1013,1 hPa 0,0 l/m 0,70 h 0,00 h 664 W/m 21,2 km/h (4 Bft) 97,24 %
30.07.2023 16:00 22,4 C 23,5 C 17,9 C 66 % 1013,0 hPa 0,0 l/m 0,43 h 0,00 h 473 W/m 19,5 km/h (3 Bft) 97,58 %
30.07.2023 17:00 22,8 C 23,8 C 18,4 C 61 % 1012,8 hPa 0,0 l/m 0,63 h 0,00 h 347 W/m 20,6 km/h (4 Bft) 98,19 %
30.07.2023 18:00 22,8 C 23,2 C 18,4 C 59 % 1012,6 hPa 0,0 l/m 0,50 h 0,00 h 253 W/m 20,6 km/h (4 Bft) 97,38 %
30.07.2023 19:00 21,2 C 20,0 C 16,1 C 66 % 1013,3 hPa 0,2 l/m 0,00 h 0,43 h 41 W/m 18,7 km/h (3 Bft) 96,81 %
30.07.2023 20:00 17,3 C 16,0 C 12,2 C 92 % 1014,1 hPa 0,6 l/m 0,00 h 0,60 h 14 W/m 10,0 km/h (2 Bft) 97,50 %
30.07.2023 21:00 16,5 C 15,4 C 11,8 C 95 % 1013,8 hPa 2,4 l/m 0,00 h 1,00 h 4 W/m 15,2 km/h (3 Bft) 98,01 %
30.07.2023 22:00 16,2 C 15,0 C 11,7 C 97 % 1013,1 hPa 1,8 l/m 0,00 h 0,97 h 0 W/m 18,4 km/h (3 Bft) 94,77 %
30.07.2023 23:00 16,1 C 15,0 C 11,7 C 98 % 1012,6 hPa 0,6 l/m 0,00 h 0,93 h 0 W/m 22,8 km/h (4 Bft) 97,73 %
Min-Datum _ 26.07.23 26.07.23 26.07.23 26.07.23 24.07.23 - - - - 24.07.23 25.07.23
_ Min-Zeit 05:52 05:36 05:26 17:28 16:34 - - - - 01:56 00:02
Minimum _ 12,8 C 11,7 C 8,3 C 54 % 1002,3 hPa - - - - 0,0 km/h (0 Bft) 5,00 %
Max-Datum _ 29.07.23 29.07.23 30.07.23 27.07.23 30.07.23 24.07.23 25.07.23 24.07.23 30.07.23 27.07.23 24.07.23
_ Max-Zeit 14:34 14:22 12:28 12:10 20:02 13:12 17:12 07:15 13:12 12:54 00:58
Maximum _ 24,6 C 30,6 C 22,8 C 100 % 1014,3 hPa 4,8 l/m 0,08 h 0,08 h 1119 W/m 41,8 km/h
S-SW (6 Bft)
100,00 %
Durchschnitt _ 18,2 C 18,2 C 13,9 C 87 % 1008,5 hPa #47,2 l/m #28:44 h #22:44 h 216 W/m 9,4 km/h (2 Bft) 97,35 %
© 2023 W. Hausmann